Time;durP1;ratioP1;P1;durP2;ratioP2;P2;SDS_P1;SDS_P2;PMS_P1;PMS_P2;Temp;Humidity;BMP_temperature;BMP_pressure;BME280_temperature;BME280_humidity;BME280_pressure;Samples;Min_cycle;Max_cycle;Signal;HPM_P1;HPM_P2
2021/11/08 00:01:26;;;;;;;35.78;9.57;;;;;;;6.45;92.17;101347.94;5016350;28;20104;-81
2021/11/08 00:04:05;;;;;;;21.08;8.73;;;;;;;6.60;92.14;101378.03;5016220;28;20069;-80
2021/11/08 00:06:44;;;;;;;32.08;10.05;;;;;;;6.73;92.04;101359.72;5016079;28;20050;-80
2021/11/08 00:09:11;;;;;;;31.80;10.23;;;;;;;6.79;91.76;101355.84;5015868;28;20061;-79
2021/11/08 00:11:39;;;;;;;39.03;9.55;;;;;;;6.66;91.79;101346.34;5016283;28;20145;-81
2021/11/08 00:14:09;;;;;;;37.10;9.93;;;;;;;6.90;91.74;101367.13;5015964;28;20137;-80
2021/11/08 00:16:43;;;;;;;31.42;10.40;;;;;;;6.96;91.56;101373.66;5015675;28;20046;-80
2021/11/08 00:19:25;;;;;;;36.85;10.40;;;;;;;7.03;91.95;101369.66;5015108;28;20050;-80
2021/11/08 00:21:53;;;;;;;25.20;8.93;;;;;;;7.10;91.04;101375.19;5015678;28;20434;-79
2021/11/08 00:24:24;;;;;;;32.58;9.48;;;;;;;7.14;91.36;101371.41;5015232;28;20108;-79
2021/11/08 00:26:51;;;;;;;32.13;10.40;;;;;;;7.10;91.52;101369.97;5015873;28;20054;-79
2021/11/08 00:29:17;;;;;;;36.47;11.55;;;;;;;7.10;91.31;101373.41;5015078;28;20216;-79
2021/11/08 00:31:45;;;;;;;34.53;11.88;;;;;;;7.21;91.28;101383.03;5014989;28;20145;-79
2021/11/08 00:34:12;;;;;;;29.33;10.60;;;;;;;7.26;90.81;101373.09;5015412;28;20347;-79
2021/11/08 00:36:39;;;;;;;31.70;9.70;;;;;;;7.26;90.38;101365.28;5014987;28;20064;-78
2021/11/08 00:39:06;;;;;;;34.17;8.75;;;;;;;7.34;90.14;101375.94;5015050;28;20054;-78
2021/11/08 00:41:33;;;;;;;27.92;9.40;;;;;;;7.33;90.14;101369.91;5014241;28;20058;-80
2021/11/08 00:44:00;;;;;;;26.90;7.93;;;;;;;7.30;89.93;101382.34;5014972;28;20069;-80
2021/11/08 00:46:27;;;;;;;30.40;9.63;;;;;;;7.27;89.81;101379.97;5015000;28;20107;-80
2021/11/08 00:48:55;;;;;;;33.55;9.93;;;;;;;7.27;89.88;101374.75;5014661;28;20092;-80
2021/11/08 00:51:23;;;;;;;28.92;8.40;;;;;;;7.17;89.88;101374.63;5032223;28;20124;-80
2021/11/08 00:53:49;;;;;;;26.75;8.43;;;;;;;7.05;90.63;101380.75;5035441;28;20049;-80
2021/11/08 00:56:18;;;;;;;24.40;8.32;;;;;;;6.93;90.37;101381.66;5044589;28;20109;-79
2021/11/08 00:58:45;;;;;;;27.08;9.07;;;;;;;6.94;91.02;101381.56;5036119;28;20139;-79
2021/11/08 01:01:18;;;;;;;27.23;9.25;;;;;;;6.87;90.92;101390.75;5034329;28;20061;-79
2021/11/08 01:03:45;;;;;;;;;;;;;;;6.78;91.34;101390.59;5034638;28;20477;-78
2021/11/08 01:06:15;;;;;;;27.65;8.65;;;;;;;6.75;91.24;101386.47;5034317;28;19940;-79
2021/11/08 01:08:43;;;;;;;28.88;8.70;;;;;;;6.71;91.01;101390.22;5034258;28;20092;-80
2021/11/08 01:11:10;;;;;;;34.67;10.10;;;;;;;6.65;92.06;101391.50;5034356;28;20053;-79
2021/11/08 01:13:39;;;;;;;26.02;8.88;;;;;;;6.54;91.51;101383.66;5034388;28;20224;-78
2021/11/08 01:16:06;;;;;;;32.33;8.80;;;;;;;6.60;91.72;101396.22;5034165;28;20153;-79
2021/11/08 01:18:32;;;;;;;32.33;9.95;;;;;;;6.47;92.12;101392.03;5033766;28;20085;-79
2021/11/08 01:21:00;;;;;;;38.00;10.48;;;;;;;6.49;92.38;101395.34;5034303;28;20046;-79
2021/11/08 01:23:28;;;;;;;37.15;11.57;;;;;;;6.49;92.69;101395.34;5034358;28;20096;-80
2021/11/08 01:25:58;;;;;;;29.83;9.90;;;;;;;6.35;92.84;101395.50;5034487;28;20571;-80
2021/11/08 01:28:32;;;;;;;30.45;9.48;;;;;;;6.37;93.18;101402.25;5033956;28;20050;-79
2021/11/08 01:30:59;;;;;;;32.45;10.45;;;;;;;6.38;92.14;101408.28;5033935;28;20049;-79
2021/11/08 01:33:26;;;;;;;29.42;9.68;;;;;;;6.40;92.36;101403.81;5034497;28;20126;-80
2021/11/08 01:36:08;;;;;;;31.67;9.18;;;;;;;6.38;93.24;101403.91;5034254;28;20049;-79
2021/11/08 01:38:40;;;;;;;31.10;10.43;;;;;;;6.46;92.48;101404.19;5034974;28;20116;-79
2021/11/08 01:41:08;;;;;;;32.45;10.20;;;;;;;6.39;92.75;101399.53;5034357;28;20053;-79
2021/11/08 01:43:34;;;;;;;36.88;9.65;;;;;;;6.45;92.26;101404.31;5034191;28;20058;-81
2021/11/08 01:46:02;;;;;;;34.65;9.07;;;;;;;6.44;92.42;101400.88;5034405;28;20132;-80
2021/11/08 01:48:29;;;;;;;34.90;9.98;;;;;;;6.50;92.52;101408.25;5033707;28;20140;-80
2021/11/08 01:50:55;;;;;;;27.85;9.25;;;;;;;6.55;92.73;101402.72;5034497;28;20049;-80
2021/11/08 01:53:23;;;;;;;33.45;9.38;;;;;;;6.60;92.34;101403.22;5034244;28;20049;-80
2021/11/08 01:55:52;;;;;;;27.92;8.20;;;;;;;6.63;92.50;101400.34;5033448;28;20443;-79
2021/11/08 01:58:20;;;;;;;33.13;9.80;;;;;;;6.63;91.78;101402.94;5033920;28;20343;-80
2021/11/08 02:00:48;;;;;;;33.72;9.13;;;;;;;6.66;91.95;101397.53;5034959;28;20060;-80
2021/11/08 02:03:16;;;;;;;31.45;9.90;;;;;;;6.67;92.12;101401.78;5037834;28;20080;-79
2021/11/08 02:05:43;;;;;;;24.58;8.75;;;;;;;6.65;92.35;101394.09;5037715;28;20049;-78
2021/11/08 02:08:10;;;;;;;35.72;11.15;;;;;;;6.73;92.11;101393.53;5037800;28;20494;-79
2021/11/08 02:10:37;;;;;;;26.38;8.98;;;;;;;6.81;91.83;101404.22;5037184;28;20394;-80
2021/11/08 02:13:05;;;;;;;27.17;8.20;;;;;;;6.85;91.27;101397.84;5037578;28;20053;-82
2021/11/08 02:15:32;;;;;;;34.08;9.80;;;;;;;6.86;91.69;101404.72;5037579;28;20056;-82
2021/11/08 02:17:59;;;;;;;32.38;8.85;;;;;;;6.93;91.51;101405.91;5037674;28;20136;-82
2021/11/08 02:20:30;;;;;;;29.45;8.95;;;;;;;6.91;91.46;101401.78;5037534;28;20091;-82
2021/11/08 02:23:00;;;;;;;33.80;8.68;;;;;;;6.88;91.60;101397.63;5037502;28;20401;-81
2021/11/08 02:25:28;;;;;;;28.23;8.07;;;;;;;6.90;91.69;101406.16;5037871;28;20060;-82
2021/11/08 02:27:56;;;;;;;27.88;7.68;;;;;;;6.96;91.52;101408.28;5038548;28;20060;-81
2021/11/08 02:30:26;;;;;;;27.48;8.63;;;;;;;6.99;90.90;101404.63;5037648;28;20057;-80
2021/11/08 02:32:53;;;;;;;34.65;9.63;;;;;;;7.04;91.09;101406.91;5037413;28;20057;-81
2021/11/08 02:35:20;;;;;;;27.35;8.82;;;;;;;7.05;91.01;101400.75;5037404;28;20041;-82
2021/11/08 02:37:50;;;;;;;30.63;9.02;;;;;;;7.06;90.61;101398.03;5037491;28;20133;-82
2021/11/08 02:40:20;;;;;;;30.52;8.50;;;;;;;7.10;90.83;101402.03;5037610;28;20046;-82
2021/11/08 02:42:50;;;;;;;31.63;8.25;;;;;;;7.13;90.79;101412.22;5037510;28;20132;-80
2021/11/08 02:45:17;;;;;;;32.33;9.38;;;;;;;7.19;90.33;101416.16;5036828;28;20048;-80
2021/11/08 02:47:45;;;;;;;28.77;8.43;;;;;;;7.21;90.29;101414.25;5037077;28;20077;-81
2021/11/08 02:50:14;;;;;;;35.75;9.10;;;;;;;7.19;90.07;101423.94;5036393;28;20088;-80
2021/11/08 02:52:42;;;;;;;32.20;8.48;;;;;;;7.27;90.26;101419.00;5036658;28;20444;-80
2021/11/08 02:55:10;;;;;;;29.98;9.55;;;;;;;7.21;89.81;101415.09;5036934;28;20141;-81
2021/11/08 02:57:38;;;;;;;31.08;9.00;;;;;;;7.23;90.04;101409.75;5036896;28;20046;-80
2021/11/08 03:00:06;;;;;;;33.28;9.85;;;;;;;7.22;90.35;101414.16;5036526;28;20053;-79
2021/11/08 03:02:36;;;;;;;31.38;9.35;;;;;;;7.14;90.42;101415.66;5036822;28;20137;-81
2021/11/08 03:05:03;;;;;;;33.42;9.02;;;;;;;7.28;90.04;101423.28;5037039;28;20049;-79
2021/11/08 03:07:31;;;;;;;36.85;8.88;;;;;;;7.21;90.22;101422.06;5036906;28;20140;-81
2021/11/08 03:10:02;;;;;;;31.30;8.85;;;;;;;7.19;90.25;101427.38;5036666;28;20045;-81
2021/11/08 03:12:33;;;;;;;31.23;8.77;;;;;;;7.23;90.04;101422.78;5036605;28;20049;-81
2021/11/08 03:15:08;;;;;;;33.10;9.25;;;;;;;7.20;90.53;101426.44;5037129;28;20132;-81
2021/11/08 03:17:38;;;;;;;25.20;8.93;;;;;;;7.19;90.13;101426.56;5036911;28;20412;-81
2021/11/08 03:20:09;;;;;;;31.55;9.25;;;;;;;7.20;90.14;101429.03;5036179;28;20684;-80
2021/11/08 03:22:35;;;;;;;30.05;9.82;;;;;;;7.20;90.11;101426.44;5036261;28;20164;-80
2021/11/08 03:25:07;;;;;;;31.67;9.90;;;;;;;7.22;90.35;101432.38;5036380;28;20132;-82
2021/11/08 03:27:47;;;;;;;33.70;11.35;;;;;;;7.17;90.45;101425.84;5036220;28;20041;-81
2021/11/08 03:30:18;;;;;;;35.53;10.52;;;;;;;7.21;90.19;101429.88;5036167;28;20060;-80
2021/11/08 03:32:46;;;;;;;34.35;10.68;;;;;;;7.26;90.66;101426.00;5060368;22;20073;-83
2021/11/08 03:35:14;;;;;;;38.88;11.63;;;;;;;7.27;90.13;101422.44;5043039;28;20056;-83
2021/11/08 03:37:43;;;;;;;32.33;11.32;;;;;;;7.29;90.41;101417.94;5037255;28;20085;-82
2021/11/08 03:40:15;;;;;;;34.10;13.55;;;;;;;7.32;89.71;101411.69;5038067;28;20087;-83
2021/11/08 03:42:43;;;;;;;30.58;11.60;;;;;;;7.25;89.88;101415.69;5038948;28;20081;-84
2021/11/08 03:45:11;;;;;;;32.83;12.05;;;;;;;7.29;89.88;101423.16;5038055;28;20053;-84
2021/11/08 03:47:38;;;;;;;32.72;12.13;;;;;;;7.33;90.10;101423.75;5036927;28;20052;-84
2021/11/08 03:50:08;;;;;;;41.90;12.90;;;;;;;7.23;90.27;101422.78;5036488;28;20153;-84
2021/11/08 03:52:35;;;;;;;29.17;10.88;;;;;;;7.20;91.03;101439.47;5036667;28;20378;-85
2021/11/08 03:55:02;;;;;;;32.83;11.30;;;;;;;7.27;90.82;101445.88;5036424;28;20049;-84
2021/11/08 03:57:29;;;;;;;34.33;12.48;;;;;;;7.18;90.47;101430.09;5036954;28;20103;-83
2021/11/08 03:59:57;;;;;;;29.65;12.80;;;;;;;7.28;90.74;101436.28;5036496;28;20409;-83
2021/11/08 04:02:23;;;;;;;34.38;12.85;;;;;;;7.21;90.82;101437.69;5037134;28;20503;-83
2021/11/08 04:04:50;;;;;;;40.95;11.18;;;;;;;7.21;90.76;101451.53;5037353;28;20119;-85
2021/11/08 04:07:18;;;;;;;35.30;10.73;;;;;;;7.25;90.54;101452.13;5036855;28;20047;-84
2021/11/08 04:09:44;;;;;;;31.23;12.02;;;;;;;7.25;90.48;101462.53;5036733;28;20103;-82
2021/11/08 04:12:11;;;;;;;31.85;11.55;;;;;;;7.29;90.45;101453.56;5036483;28;20132;-83
2021/11/08 04:14:40;;;;;;;39.78;11.80;;;;;;;7.19;90.44;101457.78;5035889;28;20053;-82
2021/11/08 04:17:08;;;;;;;37.05;11.48;;;;;;;7.25;90.46;101455.56;5035902;28;20394;-83
2021/11/08 04:19:35;;;;;;;34.08;10.88;;;;;;;7.20;90.93;101454.25;5035598;28;20446;-83
2021/11/08 04:22:04;;;;;;;34.20;10.95;;;;;;;7.20;90.63;101454.25;5036353;28;20103;-83
2021/11/08 04:24:31;;;;;;;36.83;10.25;;;;;;;7.17;90.77;101455.31;5035914;28;20136;-82
2021/11/08 04:26:58;;;;;;;29.17;9.27;;;;;;;7.20;90.65;101444.66;5036927;28;20072;-85
2021/11/08 04:29:24;;;;;;;34.13;11.88;;;;;;;7.17;91.09;101439.69;5036477;28;20049;-85
2021/11/08 04:31:54;;;;;;;31.10;9.32;;;;;;;7.09;90.66;101443.81;5036563;28;20121;-84
2021/11/08 04:34:40;;;;;;;26.67;9.48;;;;;;;7.17;91.07;101444.88;5036569;28;20045;-84
2021/11/08 04:40:12;;;;;;;32.17;10.57;;;;;;;7.18;90.75;101451.75;5036210;28;20041;-83
2021/11/08 04:42:49;;;;;;;26.13;10.55;;;;;;;7.12;90.81;101440.97;5036136;28;20049;-85
2021/11/08 04:45:33;;;;;;;35.90;11.07;;;;;;;7.18;90.71;101443.13;5036561;28;20045;-83
2021/11/08 04:50:40;;;;;;;29.50;12.52;;;;;;;7.17;90.52;101450.09;5036232;28;20046;-84
2021/11/08 04:53:19;;;;;;;38.58;10.75;;;;;;;7.22;90.36;101447.97;5049239;28;20052;-83
2021/11/08 05:27:50;;;;;;;31.30;11.68;;;;;;;7.27;90.44;101476.28;4898301;28;20474;-83
2021/11/08 05:28:39;;;;;;;35.88;12.27;;;;;;;7.27;90.43;101471.06;4979194;28;20051;-83
2021/11/08 05:31:06;;;;;;;34.83;12.45;;;;;;;7.33;90.10;101475.81;5034532;28;20050;-83
2021/11/08 05:33:33;;;;;;;34.63;12.30;;;;;;;7.43;89.81;101476.81;5034672;28;20057;-83
2021/11/08 05:36:00;;;;;;;31.05;11.60;;;;;;;7.40;89.39;101471.81;5036242;28;20095;-83
2021/11/08 05:38:29;;;;;;;32.35;12.15;;;;;;;7.33;89.79;101478.44;5038690;28;20046;-84
2021/11/08 05:41:00;;;;;;;38.65;12.65;;;;;;;7.29;90.10;101469.19;5039217;28;20107;-86
2021/11/08 05:43:29;;;;;;;32.38;13.23;;;;;;;7.34;89.68;101469.66;5039352;28;20049;-84
2021/11/08 05:45:59;;;;;;;37.55;12.68;;;;;;;7.33;89.94;101474.06;5039142;28;20128;-83
2021/11/08 05:48:26;;;;;;;31.33;14.45;;;;;;;7.32;90.17;101480.19;5037970;28;20045;-83
2021/11/08 05:50:52;;;;;;;33.15;12.20;;;;;;;7.30;89.78;101489.06;5039561;28;20159;-84
2021/11/08 05:53:20;;;;;;;33.05;12.20;;;;;;;7.33;90.02;101488.84;5039204;28;20081;-85
2021/11/08 05:55:57;;;;;;;37.65;11.35;;;;;;;7.35;89.68;101486.97;5039591;28;20346;-84
2021/11/08 05:58:47;;;;;;;38.05;11.50;;;;;;;7.40;89.23;101487.44;5038994;28;20049;-84
2021/11/08 06:51:22;;;;;;;;;;;;;;;;;;;;;
2021/11/08 07:33:35;;;;;;;30.27;9.80;;;;;;;7.69;89.02;101581.63;5034446;23;20056;-32
2021/11/08 07:36:01;;;;;;;32.70;10.47;;;;;;;7.63;89.06;101588.13;5033853;28;20136;-32
2021/11/08 07:38:31;;;;;;;26.92;10.02;;;;;;;7.62;89.34;101593.44;5033223;28;20092;-32
2021/11/08 07:40:58;;;;;;;36.60;9.85;;;;;;;7.69;89.21;101591.22;5033765;28;20130;-32
2021/11/08 07:43:25;;;;;;;34.40;11.13;;;;;;;7.64;89.67;101600.19;5035527;28;20132;-32
2021/11/08 07:45:53;;;;;;;27.25;10.57;;;;;;;7.68;89.71;101606.00;5033495;28;20049;-33
2021/11/08 07:48:20;;;;;;;25.45;9.38;;;;;;;7.73;88.87;101603.06;5032471;28;20622;-34
2021/11/08 07:50:49;;;;;;;26.70;10.20;;;;;;;7.72;89.04;101611.84;5033229;28;20085;-33
2021/11/08 07:53:17;;;;;;;30.60;10.40;;;;;;;7.77;88.45;101609.72;5033870;28;20084;-33
2021/11/08 07:55:44;;;;;;;25.25;9.85;;;;;;;7.75;88.74;101612.44;5033255;28;20053;-34
2021/11/08 07:58:11;;;;;;;31.48;10.43;;;;;;;7.78;88.75;101606.16;5036886;28;20077;-35
2021/11/08 08:00:41;;;;;;;28.13;10.32;;;;;;;7.78;88.73;101619.19;5042100;28;20100;-34
2021/11/08 08:03:10;;;;;;;35.83;11.52;;;;;;;7.81;89.11;101613.75;5037425;28;20056;-34
2021/11/08 08:05:37;;;;;;;29.50;9.88;;;;;;;7.82;88.81;101618.03;5033433;28;20100;-34
2021/11/08 08:08:06;;;;;;;34.90;10.20;;;;;;;7.95;88.37;101624.00;5033077;28;20407;-34
2021/11/08 08:10:33;;;;;;;29.70;9.98;;;;;;;7.94;88.69;101627.53;5032654;28;20050;-34
2021/11/08 08:12:59;;;;;;;33.42;10.32;;;;;;;7.88;87.29;101630.59;5033215;28;20080;-34
2021/11/08 08:15:26;;;;;;;27.88;10.00;;;;;;;7.93;87.38;101641.50;5032936;28;20081;-34
2021/11/08 08:17:53;;;;;;;31.92;10.93;;;;;;;8.04;87.11;101638.91;5031558;28;20128;-34
2021/11/08 08:20:22;;;;;;;29.63;11.70;;;;;;;7.96;86.83;101633.47;5034553;28;20049;-32
2021/11/08 08:22:49;;;;;;;32.08;10.90;;;;;;;7.99;87.48;101644.50;5035064;28;20080;-32
2021/11/08 08:25:17;;;;;;;29.55;10.40;;;;;;;7.99;87.29;101641.06;5034175;28;20053;-32
2021/11/08 08:27:44;;;;;;;35.95;11.52;;;;;;;8.04;87.58;101654.56;5033575;28;20109;-32
2021/11/08 08:30:11;;;;;;;33.70;10.70;;;;;;;8.03;87.75;101647.72;5033301;28;20125;-33
2021/11/08 08:32:38;;;;;;;26.30;10.70;;;;;;;8.01;87.20;101647.00;5032340;28;20136;-34
2021/11/08 08:35:07;;;;;;;33.20;11.48;;;;;;;8.07;87.89;101643.06;5033353;28;20488;-35
2021/11/08 08:37:34;;;;;;;36.80;11.63;;;;;;;8.06;88.20;101647.44;5032382;28;20124;-34
2021/11/08 08:40:00;;;;;;;34.30;11.48;;;;;;;8.19;87.51;101650.81;5032050;28;20420;-34
2021/11/08 08:42:29;;;;;;;26.58;11.73;;;;;;;8.69;87.70;101651.34;5029945;28;20124;-34
2021/11/08 08:44:56;;;;;;;33.72;10.63;;;;;;;8.56;87.28;101650.63;5032305;28;20140;-34
2021/11/08 08:47:24;;;;;;;28.70;10.85;;;;;;;8.46;87.07;101649.69;5030737;28;20444;-34
2021/11/08 08:49:50;;;;;;;33.83;10.85;;;;;;;8.47;87.10;101656.59;5031427;28;20565;-34
2021/11/08 08:52:18;;;;;;;30.27;11.07;;;;;;;8.50;86.82;101640.69;5031875;28;20461;-34
2021/11/08 08:54:45;;;;;;;33.95;11.32;;;;;;;8.43;86.84;101647.31;5028486;28;20087;-34
2021/11/08 08:57:12;;;;;;;36.08;10.30;;;;;;;8.54;86.94;101655.13;5031413;28;20037;-34
2021/11/08 08:59:43;;;;;;;30.80;11.38;;;;;;;8.58;86.67;101664.38;5031271;28;20060;-34
2021/11/08 09:02:10;;;;;;;28.48;10.30;;;;;;;8.72;85.63;101661.56;5031944;28;20141;-32
2021/11/08 09:04:37;;;;;;;30.90;10.90;;;;;;;8.70;85.79;101666.06;5032523;28;20077;-32
2021/11/08 09:07:04;;;;;;;31.30;10.95;;;;;;;8.76;85.60;101668.19;5031906;28;20041;-32
2021/11/08 09:09:31;;;;;;;28.50;9.73;;;;;;;8.76;85.47;101668.19;5030510;28;20072;-32
2021/11/08 09:11:57;;;;;;;37.28;11.73;;;;;;;8.78;85.18;101673.31;5030993;28;20088;-32
2021/11/08 09:14:26;;;;;;;27.33;10.57;;;;;;;8.84;85.24;101676.28;5030773;28;20049;-43
2021/11/08 09:16:54;;;;;;;35.90;11.38;;;;;;;8.89;85.17;101678.53;5030571;28;20049;-43
2021/11/08 09:19:41;;;;;;;34.78;11.45;;;;;;;9.05;84.98;101683.34;5030405;28;20239;-43
2021/11/08 09:22:08;;;;;;;32.47;11.30;;;;;;;9.15;84.63;101676.47;5031099;28;20049;-43
2021/11/08 09:24:35;;;;;;;29.27;10.65;;;;;;;9.10;84.24;101681.22;5031200;28;20643;-43
2021/11/08 09:27:02;;;;;;;30.23;10.32;;;;;;;9.22;83.77;101680.25;5030848;28;20124;-43
2021/11/08 09:29:29;;;;;;;29.17;9.93;;;;;;;9.29;83.75;101677.03;5030510;28;20136;-43
2021/11/08 09:34:31;;;;;;;23.85;9.75;;;;;;;9.52;84.21;101685.63;5037480;28;20049;-83
2021/11/08 09:40:43;;;;;;;;;;;;;;;;;;;;;
2021/11/08 09:47:02;;;;;;;28.77;10.70;;;;;;;9.91;81.00;101668.50;5012600;28;20054;-82
2021/11/08 09:50:01;;;;;;;30.30;11.27;;;;;;;9.72;81.26;101683.19;4966113;28;20136;-82
2021/11/08 10:06:03;;;;;;;33.00;11.25;;;;;;;9.63;82.14;101695.22;4974436;28;20077;-83
2021/11/08 10:19:04;;;;;;;27.73;10.10;;;;;;;9.70;82.07;101692.94;4973317;28;20452;-82
2021/11/08 10:31:44;;;;;;;31.70;9.70;;;;;;;10.24;79.41;101688.44;4995279;28;20049;-81
2021/11/08 10:44:36;;;;;;;33.47;10.15;;;;;;;10.05;79.90;101679.59;5017076;28;20058;-81
2021/11/08 11:02:09;;;;;;;;;;;;;;;;;;;;;
2021/11/08 11:16:30;;;;;;;;;;;;;;;;;;;;;
2021/11/08 11:25:59;;;;;;;32.38;12.55;;;;;;;11.13;77.35;101672.97;4975745;28;20102;-82
2021/11/08 11:32:30;;;;;;;33.65;11.90;;;;;;;11.01;75.84;101674.88;4975289;28;20451;-82
2021/11/08 11:35:24;;;;;;;35.20;11.65;;;;;;;11.25;76.00;101679.75;4988349;28;20510;-82
2021/11/08 11:41:14;;;;;;;31.70;10.77;;;;;;;11.20;75.79;101688.03;5006588;28;20053;-83
2021/11/08 11:44:15;;;;;;;32.88;10.77;;;;;;;10.91;76.13;101684.47;5017091;28;20057;-83
2021/11/08 11:50:15;;;;;;;32.70;10.63;;;;;;;11.10;75.58;101686.34;5013623;28;20447;-83
2021/11/08 11:56:41;;;;;;;27.52;10.05;;;;;;;11.27;75.20;101665.56;5017994;28;20069;-82
2021/11/08 11:59:29;;;;;;;29.95;11.05;;;;;;;11.15;75.93;101652.72;5016813;28;20045;-83
2021/11/08 12:02:32;;;;;;;34.33;10.63;;;;;;;11.18;75.60;101676.03;5017700;28;20065;-82
2021/11/08 12:09:14;;;;;;;29.20;8.98;;;;;;;11.08;75.24;101659.44;5000681;28;20440;-83
2021/11/08 12:18:39;;;;;;;24.65;8.10;;;;;;;11.12;74.40;101650.38;4965372;28;20057;-82
2021/11/08 12:21:47;;;;;;;30.75;7.82;;;;;;;11.11;74.57;101675.72;4883192;29;20144;-82
2021/11/08 12:34:21;;;;;;;24.45;7.40;;;;;;;11.06;74.83;101677.09;4989780;28;20078;-85
2021/11/08 12:40:43;;;;;;;29.88;8.15;;;;;;;11.11;74.03;101664.41;5024912;28;20057;-82
2021/11/08 14:29:49;;;;;;;27.45;8.82;;;;;;;10.70;77.44;101634.81;4854026;29;20427;-81
2021/11/08 14:36:10;;;;;;;26.70;7.80;;;;;;;10.60;77.24;101634.75;4975872;28;20093;-82
2021/11/08 14:39:34;;;;;;;25.52;7.45;;;;;;;10.60;77.77;101649.66;4989882;28;20568;-83
2021/11/08 14:56:36;;;;;;;19.98;7.20;;;;;;;10.52;74.91;101693.94;4966356;28;20145;-81
2021/11/08 15:33:08;;;;;;;21.67;6.80;;;;;;;10.27;76.43;101679.50;4988521;23;20419;-84
2021/11/08 15:35:41;;;;;;;21.48;6.35;;;;;;;10.23;77.20;101680.72;5038975;28;20085;-83
2021/11/08 15:38:12;;;;;;;24.10;7.30;;;;;;;10.31;76.13;101675.69;5017259;28;20368;-83
2021/11/08 15:40:39;;;;;;;20.65;6.30;;;;;;;10.21;75.99;101675.63;5018503;28;20188;-83
2021/11/08 15:43:11;;;;;;;26.67;6.47;;;;;;;10.12;76.45;101660.66;5017130;28;20137;-83
2021/11/08 15:45:40;;;;;;;22.35;6.72;;;;;;;10.28;76.50;101674.16;5017221;28;20145;-82
2021/11/08 15:48:07;;;;;;;26.90;7.30;;;;;;;10.11;77.35;101669.44;5017156;28;20175;-84
2021/11/08 15:50:34;;;;;;;26.10;8.18;;;;;;;10.03;77.87;101677.09;5020480;28;20049;-83
2021/11/08 15:53:00;;;;;;;21.92;6.85;;;;;;;9.97;77.28;101669.75;5017601;28;20517;-82
2021/11/08 15:55:30;;;;;;;28.08;7.90;;;;;;;10.02;78.21;101672.81;5017641;28;20077;-83
2021/11/08 15:57:56;;;;;;;19.33;6.85;;;;;;;9.95;78.35;101680.34;5016782;28;20089;-83
2021/11/08 16:00:26;;;;;;;23.30;7.30;;;;;;;9.89;78.97;101677.44;5017482;28;20376;-83
2021/11/08 16:02:52;;;;;;;23.23;6.97;;;;;;;9.80;79.89;101680.78;5017382;28;20141;-83
2021/11/08 16:05:19;;;;;;;20.00;6.72;;;;;;;9.89;79.04;101688.72;5016856;28;20137;-83
2021/11/08 16:07:46;;;;;;;16.83;6.28;;;;;;;9.85;78.69;101683.88;5018058;28;20140;-82
2021/11/08 16:10:13;;;;;;;23.25;6.18;;;;;;;9.97;77.17;101698.53;5017015;28;20128;-83
2021/11/08 16:12:40;;;;;;;16.13;5.88;;;;;;;9.82;77.75;101705.03;5016828;28;20073;-84
2021/11/08 16:15:07;;;;;;;24.55;8.55;;;;;;;9.96;77.09;101702.09;5018015;28;20425;-83
2021/11/08 16:17:38;;;;;;;14.55;7.18;;;;;;;9.83;77.60;101711.91;5016987;28;20161;-83
2021/11/08 16:20:07;;;;;;;20.75;7.15;;;;;;;9.82;77.95;101723.31;5016544;28;20046;-84
2021/11/08 16:22:34;;;;;;;20.45;6.90;;;;;;;9.75;77.93;101715.16;5017846;28;20132;-85
2021/11/08 16:25:01;;;;;;;23.70;6.47;;;;;;;9.86;77.92;101722.13;5017888;28;20141;-84
2021/11/08 16:27:27;;;;;;;17.40;6.35;;;;;;;9.83;78.30;101722.38;5017714;28;20424;-84
2021/11/08 16:29:54;;;;;;;23.02;7.15;;;;;;;9.91;77.90;101723.41;5023512;28;20084;-84
2021/11/08 16:32:42;;;;;;;20.65;7.57;;;;;;;9.78;78.16;101722.75;5017322;28;20115;-84
2021/11/08 16:35:08;;;;;;;27.58;7.60;;;;;;;9.69;78.89;101735.72;5017011;28;20128;-84
2021/11/08 16:37:36;;;;;;;22.52;7.28;;;;;;;9.77;78.79;101743.78;5017594;28;20064;-84
2021/11/08 16:40:06;;;;;;;17.33;7.28;;;;;;;9.72;78.66;101751.97;5016823;28;20431;-82
2021/11/08 16:42:33;;;;;;;23.33;7.80;;;;;;;9.61;78.43;101745.00;5016708;28;20056;-84
2021/11/08 16:45:00;;;;;;;22.88;8.98;;;;;;;9.62;78.31;101753.66;5016201;28;20435;-84
2021/11/08 16:47:26;;;;;;;24.63;9.35;;;;;;;9.60;78.28;101753.78;5016605;28;20141;-84
2021/11/08 16:49:54;;;;;;;26.10;8.13;;;;;;;9.59;78.45;101759.13;5016701;28;20056;-84
2021/11/08 16:52:21;;;;;;;19.45;8.35;;;;;;;9.59;78.41;101761.75;5017249;28;20136;-83
2021/11/08 16:54:49;;;;;;;23.90;7.78;;;;;;;9.59;77.96;101770.41;5017245;28;20513;-83
2021/11/08 16:57:16;;;;;;;21.08;8.32;;;;;;;9.50;78.27;101776.38;5015772;28;20053;-83
2021/11/08 16:59:47;;;;;;;27.77;10.45;;;;;;;9.45;78.62;101769.88;5015617;28;20143;-83
2021/11/08 17:02:17;;;;;;;25.77;10.57;;;;;;;9.48;78.32;101770.44;5015564;28;20053;-83
2021/11/08 17:04:44;;;;;;;30.33;13.20;;;;;;;9.40;78.43;101765.00;5016008;28;20053;-82
2021/11/08 17:07:14;;;;;;;34.53;13.65;;;;;;;9.43;78.48;101767.38;5015496;28;20085;-82
2021/11/08 17:09:55;;;;;;;27.00;12.90;;;;;;;9.41;78.50;101768.44;5015053;28;20439;-82
2021/11/08 17:15:10;;;;;;;29.15;11.25;;;;;;;9.42;79.42;101770.94;5016818;28;20065;-83
2021/11/08 17:17:37;;;;;;;30.88;11.57;;;;;;;9.42;80.24;101781.38;5015972;28;20057;-82
2021/11/08 17:20:06;;;;;;;31.58;12.57;;;;;;;9.53;80.54;101770.91;5018582;28;20066;-82
2021/11/08 17:22:36;;;;;;;30.90;14.45;;;;;;;9.38;80.53;101768.69;5019131;28;20061;-82
2021/11/08 17:25:03;;;;;;;29.60;13.63;;;;;;;9.42;80.93;101780.56;5016248;28;20054;-83
2021/11/08 17:27:31;;;;;;;28.05;11.95;;;;;;;9.42;81.33;101776.16;5016154;28;20057;-82
2021/11/08 17:29:58;;;;;;;28.08;10.65;;;;;;;9.39;81.15;101771.19;5016119;28;20050;-82
2021/11/08 17:32:29;;;;;;;26.77;9.98;;;;;;;9.34;80.80;101773.31;5020009;28;20146;-82
2021/11/08 17:34:56;;;;;;;29.67;10.68;;;;;;;9.35;81.62;101792.44;5019785;28;20112;-83
2021/11/08 17:37:23;;;;;;;24.63;10.10;;;;;;;9.25;81.24;101785.31;5019062;28;20459;-82
2021/11/08 17:39:51;;;;;;;19.67;8.57;;;;;;;9.26;82.04;101780.91;5018205;28;20052;-81
2021/11/08 17:42:18;;;;;;;22.90;9.23;;;;;;;9.34;81.93;101789.00;5019008;28;20077;-82
2021/11/08 17:44:45;;;;;;;24.65;8.73;;;;;;;9.40;81.32;101782.47;5019120;28;20057;-82
2021/11/08 17:47:12;;;;;;;23.42;8.85;;;;;;;9.65;79.92;101787.41;5019862;28;20061;-82
2021/11/08 17:49:38;;;;;;;22.08;8.20;;;;;;;9.49;80.79;101781.72;5019274;28;20095;-82
2021/11/08 17:52:06;;;;;;;26.80;8.25;;;;;;;9.34;81.30;101789.00;5019267;28;20359;-81
2021/11/08 17:54:33;;;;;;;24.20;8.50;;;;;;;9.23;81.41;101789.81;5019121;28;20065;-81
2021/11/08 17:57:01;;;;;;;19.85;7.72;;;;;;;9.22;81.51;101792.56;5019545;28;20053;-82
2021/11/08 17:59:28;;;;;;;19.20;8.05;;;;;;;9.37;81.53;101787.94;5019840;28;20135;-82
2021/11/08 18:01:54;;;;;;;22.75;7.93;;;;;;;9.40;81.21;101798.97;5021260;28;20435;-83
2021/11/08 18:04:22;;;;;;;22.58;8.90;;;;;;;9.32;81.72;101802.16;5021251;28;20061;-83
2021/11/08 18:06:49;;;;;;;18.27;9.57;;;;;;;9.31;81.87;101813.56;5021302;28;20438;-82
2021/11/08 18:09:15;;;;;;;26.42;8.77;;;;;;;9.26;81.28;101807.03;5021233;28;20077;-81
2021/11/08 18:11:42;;;;;;;24.33;9.43;;;;;;;9.26;81.44;101813.09;5020133;28;20054;-83
2021/11/08 18:14:10;;;;;;;27.88;9.85;;;;;;;9.30;81.18;101824.97;5020458;28;20065;-82
2021/11/08 18:16:37;;;;;;;24.92;9.13;;;;;;;9.28;82.07;101823.41;5020487;28;20085;-82
2021/11/08 18:19:04;;;;;;;27.00;9.95;;;;;;;9.23;81.04;101825.56;5020701;28;20080;-82
2021/11/08 18:21:47;;;;;;;27.65;9.23;;;;;;;9.27;81.79;101834.81;5020552;28;20057;-82
2021/11/08 18:24:17;;;;;;;;;;;;;;;9.24;81.36;101840.28;5018993;28;20053;-83
2021/11/08 18:26:56;;;;;;;25.25;7.93;;;;;;;9.25;81.09;101847.16;5018627;28;19999;-82
2021/11/08 18:29:38;;;;;;;28.25;8.75;;;;;;;9.18;81.40;101851.19;5018932;28;20052;-82
2021/11/08 18:32:07;;;;;;;24.13;8.90;;;;;;;9.23;81.30;101849.88;5018022;28;20053;-82
2021/11/08 18:34:34;;;;;;;25.70;7.97;;;;;;;9.19;81.64;101858.06;5020240;28;20056;-82